sensor_id;sensor_type;location;lat;lon;timestamp;P1;durP1;ratioP1;P2;durP2;ratioP2
40867;SDS011;26586;50.708;22.412;2023-08-07T00:01:08;0.00;;;0.00;;
40867;SDS011;26586;50.708;22.412;2023-08-07T00:03:36;0.00;;;0.00;;
40867;SDS011;26586;50.708;22.412;2023-08-07T00:06:02;0.00;;;0.00;;
40867;SDS011;26586;50.708;22.412;2023-08-07T00:08:28;0.10;;;0.10;;
40867;SDS011;26586;50.708;22.412;2023-08-07T00:11:06;0.00;;;0.00;;
40867;SDS011;26586;50.708;22.412;2023-08-07T00:13:36;0.00;;;0.00;;
40867;SDS011;26586;50.708;22.412;2023-08-07T00:16:02;7.47;;;0.45;;
40867;SDS011;26586;50.708;22.412;2023-08-07T00:18:29;0.00;;;0.00;;
40867;SDS011;26586;50.708;22.412;2023-08-07T00:20:55;0.00;;;0.00;;
40867;SDS011;26586;50.708;22.412;2023-08-07T00:23:21;0.00;;;0.00;;
40867;SDS011;26586;50.708;22.412;2023-08-07T00:25:48;0.00;;;0.00;;
40867;SDS011;26586;50.708;22.412;2023-08-07T00:28:14;0.00;;;0.00;;
40867;SDS011;26586;50.708;22.412;2023-08-07T00:30:40;0.00;;;0.00;;
40867;SDS011;26586;50.708;22.412;2023-08-07T00:33:06;0.00;;;0.00;;
40867;SDS011;26586;50.708;22.412;2023-08-07T00:35:32;0.00;;;0.00;;
40867;SDS011;26586;50.708;22.412;2023-08-07T00:37:58;0.30;;;0.10;;
40867;SDS011;26586;50.708;22.412;2023-08-07T00:40:25;0.00;;;0.00;;
40867;SDS011;26586;50.708;22.412;2023-08-07T00:42:51;0.00;;;0.00;;
40867;SDS011;26586;50.708;22.412;2023-08-07T00:45:17;0.00;;;0.00;;
40867;SDS011;26586;50.708;22.412;2023-08-07T00:47:43;0.25;;;0.25;;
40867;SDS011;26586;50.708;22.412;2023-08-07T00:50:10;0.00;;;0.00;;
40867;SDS011;26586;50.708;22.412;2023-08-07T00:52:36;0.00;;;0.00;;
40867;SDS011;26586;50.708;22.412;2023-08-07T00:55:03;0.00;;;0.00;;
40867;SDS011;26586;50.708;22.412;2023-08-07T00:57:30;0.00;;;0.00;;
40867;SDS011;26586;50.708;22.412;2023-08-07T00:59:57;0.00;;;0.00;;
40867;SDS011;26586;50.708;22.412;2023-08-07T01:02:24;0.00;;;0.00;;
40867;SDS011;26586;50.708;22.412;2023-08-07T01:04:50;0.00;;;0.00;;
40867;SDS011;26586;50.708;22.412;2023-08-07T01:07:16;0.00;;;0.00;;
40867;SDS011;26586;50.708;22.412;2023-08-07T01:09:43;0.00;;;0.00;;
40867;SDS011;26586;50.708;22.412;2023-08-07T01:14:44;0.00;;;0.00;;
40867;SDS011;26586;50.708;22.412;2023-08-07T01:17:24;0.00;;;0.00;;
40867;SDS011;26586;50.708;22.412;2023-08-07T01:19:51;0.00;;;0.00;;
40867;SDS011;26586;50.708;22.412;2023-08-07T01:22:18;0.10;;;0.03;;
40867;SDS011;26586;50.708;22.412;2023-08-07T01:24:47;0.20;;;0.00;;
40867;SDS011;26586;50.708;22.412;2023-08-07T01:32:36;0.00;;;0.00;;
40867;SDS011;26586;50.708;22.412;2023-08-07T01:35:22;0.00;;;0.00;;
40867;SDS011;26586;50.708;22.412;2023-08-07T01:37:53;0.10;;;0.10;;
40867;SDS011;26586;50.708;22.412;2023-08-07T01:40:22;0.00;;;0.00;;
40867;SDS011;26586;50.708;22.412;2023-08-07T01:45:21;0.00;;;0.00;;
40867;SDS011;26586;50.708;22.412;2023-08-07T01:47:49;1.40;;;0.80;;
40867;SDS011;26586;50.708;22.412;2023-08-07T01:50:15;0.00;;;0.00;;
40867;SDS011;26586;50.708;22.412;2023-08-07T01:52:41;0.00;;;0.00;;
40867;SDS011;26586;50.708;22.412;2023-08-07T01:55:08;0.00;;;0.00;;
40867;SDS011;26586;50.708;22.412;2023-08-07T01:57:34;0.03;;;0.00;;
40867;SDS011;26586;50.708;22.412;2023-08-07T02:00:00;0.00;;;0.00;;
40867;SDS011;26586;50.708;22.412;2023-08-07T02:02:26;0.00;;;0.00;;
40867;SDS011;26586;50.708;22.412;2023-08-07T02:04:53;0.00;;;0.00;;
40867;SDS011;26586;50.708;22.412;2023-08-07T02:07:21;0.00;;;0.00;;
40867;SDS011;26586;50.708;22.412;2023-08-07T02:09:47;0.00;;;0.00;;
40867;SDS011;26586;50.708;22.412;2023-08-07T02:12:13;0.10;;;0.10;;
40867;SDS011;26586;50.708;22.412;2023-08-07T02:14:40;0.00;;;0.00;;
40867;SDS011;26586;50.708;22.412;2023-08-07T02:17:06;0.00;;;0.00;;
40867;SDS011;26586;50.708;22.412;2023-08-07T02:19:32;0.00;;;0.00;;
40867;SDS011;26586;50.708;22.412;2023-08-07T02:21:58;0.00;;;0.00;;
40867;SDS011;26586;50.708;22.412;2023-08-07T02:24:25;0.00;;;0.00;;
40867;SDS011;26586;50.708;22.412;2023-08-07T02:26:51;0.00;;;0.00;;
40867;SDS011;26586;50.708;22.412;2023-08-07T02:29:17;0.00;;;0.00;;
40867;SDS011;26586;50.708;22.412;2023-08-07T02:31:43;0.00;;;0.00;;
40867;SDS011;26586;50.708;22.412;2023-08-07T02:34:09;0.00;;;0.00;;
40867;SDS011;26586;50.708;22.412;2023-08-07T02:36:35;0.00;;;0.00;;
40867;SDS011;26586;50.708;22.412;2023-08-07T02:39:02;0.00;;;0.00;;
40867;SDS011;26586;50.708;22.412;2023-08-07T02:41:29;0.00;;;0.00;;
40867;SDS011;26586;50.708;22.412;2023-08-07T02:43:57;0.00;;;0.00;;
40867;SDS011;26586;50.708;22.412;2023-08-07T02:46:23;0.00;;;0.00;;
40867;SDS011;26586;50.708;22.412;2023-08-07T02:48:49;0.00;;;0.00;;
40867;SDS011;26586;50.708;22.412;2023-08-07T02:51:15;0.00;;;0.00;;
40867;SDS011;26586;50.708;22.412;2023-08-07T02:53:42;0.00;;;0.00;;
40867;SDS011;26586;50.708;22.412;2023-08-07T02:56:08;0.00;;;0.00;;
40867;SDS011;26586;50.708;22.412;2023-08-07T02:58:34;0.00;;;0.00;;
40867;SDS011;26586;50.708;22.412;2023-08-07T03:01:04;0.13;;;0.00;;
40867;SDS011;26586;50.708;22.412;2023-08-07T03:03:32;0.00;;;0.00;;
40867;SDS011;26586;50.708;22.412;2023-08-07T03:05:58;0.03;;;0.00;;
40867;SDS011;26586;50.708;22.412;2023-08-07T03:08:24;0.00;;;0.00;;
40867;SDS011;26586;50.708;22.412;2023-08-07T03:10:54;0.30;;;0.10;;
40867;SDS011;26586;50.708;22.412;2023-08-07T03:13:22;0.00;;;0.00;;
40867;SDS011;26586;50.708;22.412;2023-08-07T03:15:49;0.00;;;0.00;;
40867;SDS011;26586;50.708;22.412;2023-08-07T03:18:28;0.00;;;0.00;;
40867;SDS011;26586;50.708;22.412;2023-08-07T03:20:55;0.00;;;0.00;;
40867;SDS011;26586;50.708;22.412;2023-08-07T03:23:22;0.00;;;0.00;;
40867;SDS011;26586;50.708;22.412;2023-08-07T03:26:03;0.00;;;0.00;;
40867;SDS011;26586;50.708;22.412;2023-08-07T03:28:29;0.90;;;0.03;;
40867;SDS011;26586;50.708;22.412;2023-08-07T03:30:55;0.00;;;0.00;;
40867;SDS011;26586;50.708;22.412;2023-08-07T03:33:22;0.00;;;0.00;;
40867;SDS011;26586;50.708;22.412;2023-08-07T03:35:48;0.00;;;0.00;;
40867;SDS011;26586;50.708;22.412;2023-08-07T03:38:14;0.20;;;0.08;;
40867;SDS011;26586;50.708;22.412;2023-08-07T03:40:40;0.00;;;0.00;;
40867;SDS011;26586;50.708;22.412;2023-08-07T03:43:06;0.00;;;0.00;;
40867;SDS011;26586;50.708;22.412;2023-08-07T03:45:32;0.00;;;0.00;;
40867;SDS011;26586;50.708;22.412;2023-08-07T03:47:59;0.00;;;0.00;;
40867;SDS011;26586;50.708;22.412;2023-08-07T03:50:25;0.00;;;0.00;;
40867;SDS011;26586;50.708;22.412;2023-08-07T03:52:51;0.00;;;0.00;;
40867;SDS011;26586;50.708;22.412;2023-08-07T03:55:17;0.00;;;0.00;;
40867;SDS011;26586;50.708;22.412;2023-08-07T03:57:44;0.00;;;0.00;;
40867;SDS011;26586;50.708;22.412;2023-08-07T04:00:10;0.00;;;0.00;;
40867;SDS011;26586;50.708;22.412;2023-08-07T04:05:03;0.00;;;0.00;;
40867;SDS011;26586;50.708;22.412;2023-08-07T04:07:29;0.10;;;0.10;;
40867;SDS011;26586;50.708;22.412;2023-08-07T04:09:55;0.10;;;0.10;;
40867;SDS011;26586;50.708;22.412;2023-08-07T04:12:22;0.00;;;0.00;;
40867;SDS011;26586;50.708;22.412;2023-08-07T04:14:48;0.00;;;0.00;;
40867;SDS011;26586;50.708;22.412;2023-08-07T04:17:14;0.00;;;0.00;;
40867;SDS011;26586;50.708;22.412;2023-08-07T04:19:40;0.00;;;0.00;;
40867;SDS011;26586;50.708;22.412;2023-08-07T04:22:06;0.00;;;0.00;;
40867;SDS011;26586;50.708;22.412;2023-08-07T04:24:32;0.00;;;0.00;;
40867;SDS011;26586;50.708;22.412;2023-08-07T04:26:59;0.00;;;0.00;;
40867;SDS011;26586;50.708;22.412;2023-08-07T04:29:25;0.00;;;0.00;;
40867;SDS011;26586;50.708;22.412;2023-08-07T04:31:51;0.08;;;0.00;;
40867;SDS011;26586;50.708;22.412;2023-08-07T04:34:17;0.00;;;0.00;;
40867;SDS011;26586;50.708;22.412;2023-08-07T04:36:45;0.03;;;0.00;;
40867;SDS011;26586;50.708;22.412;2023-08-07T04:39:11;0.00;;;0.00;;
40867;SDS011;26586;50.708;22.412;2023-08-07T04:41:39;0.00;;;0.00;;
40867;SDS011;26586;50.708;22.412;2023-08-07T04:44:06;0.00;;;0.00;;
40867;SDS011;26586;50.708;22.412;2023-08-07T04:46:32;0.00;;;0.00;;
40867;SDS011;26586;50.708;22.412;2023-08-07T04:48:59;0.00;;;0.00;;
40867;SDS011;26586;50.708;22.412;2023-08-07T04:51:26;0.00;;;0.00;;
40867;SDS011;26586;50.708;22.412;2023-08-07T04:53:54;0.00;;;0.00;;
40867;SDS011;26586;50.708;22.412;2023-08-07T04:56:22;0.00;;;0.00;;
40867;SDS011;26586;50.708;22.412;2023-08-07T04:58:48;0.00;;;0.00;;
40867;SDS011;26586;50.708;22.412;2023-08-07T05:01:14;0.00;;;0.00;;
40867;SDS011;26586;50.708;22.412;2023-08-07T05:03:40;0.00;;;0.00;;
40867;SDS011;26586;50.708;22.412;2023-08-07T05:06:07;0.28;;;0.00;;
40867;SDS011;26586;50.708;22.412;2023-08-07T05:08:33;0.00;;;0.00;;
40867;SDS011;26586;50.708;22.412;2023-08-07T05:10:59;0.00;;;0.00;;
40867;SDS011;26586;50.708;22.412;2023-08-07T05:13:25;0.00;;;0.00;;
40867;SDS011;26586;50.708;22.412;2023-08-07T05:15:52;0.00;;;0.00;;
40867;SDS011;26586;50.708;22.412;2023-08-07T05:18:18;0.00;;;0.00;;
40867;SDS011;26586;50.708;22.412;2023-08-07T05:20:45;0.00;;;0.00;;
40867;SDS011;26586;50.708;22.412;2023-08-07T05:23:11;0.00;;;0.00;;
40867;SDS011;26586;50.708;22.412;2023-08-07T05:25:37;0.00;;;0.00;;
40867;SDS011;26586;50.708;22.412;2023-08-07T05:28:03;0.00;;;0.00;;
40867;SDS011;26586;50.708;22.412;2023-08-07T05:30:30;0.13;;;0.13;;
40867;SDS011;26586;50.708;22.412;2023-08-07T05:32:57;0.43;;;0.28;;
40867;SDS011;26586;50.708;22.412;2023-08-07T05:35:23;0.22;;;0.10;;
40867;SDS011;26586;50.708;22.412;2023-08-07T05:37:49;0.00;;;0.00;;
40867;SDS011;26586;50.708;22.412;2023-08-07T05:40:16;0.00;;;0.00;;
40867;SDS011;26586;50.708;22.412;2023-08-07T05:42:42;0.00;;;0.00;;
40867;SDS011;26586;50.708;22.412;2023-08-07T05:45:09;0.00;;;0.00;;
40867;SDS011;26586;50.708;22.412;2023-08-07T05:47:36;0.00;;;0.00;;
40867;SDS011;26586;50.708;22.412;2023-08-07T05:50:02;0.00;;;0.00;;
40867;SDS011;26586;50.708;22.412;2023-08-07T05:52:29;0.00;;;0.00;;
40867;SDS011;26586;50.708;22.412;2023-08-07T05:54:55;0.08;;;0.00;;
40867;SDS011;26586;50.708;22.412;2023-08-07T05:57:21;0.10;;;0.10;;
40867;SDS011;26586;50.708;22.412;2023-08-07T05:59:48;0.00;;;0.00;;
40867;SDS011;26586;50.708;22.412;2023-08-07T06:02:14;0.00;;;0.00;;
40867;SDS011;26586;50.708;22.412;2023-08-07T06:04:41;0.10;;;0.10;;
40867;SDS011;26586;50.708;22.412;2023-08-07T06:07:07;0.47;;;0.43;;
40867;SDS011;26586;50.708;22.412;2023-08-07T06:09:34;0.00;;;0.00;;
40867;SDS011;26586;50.708;22.412;2023-08-07T06:12:01;0.00;;;0.00;;
40867;SDS011;26586;50.708;22.412;2023-08-07T06:14:27;1.88;;;0.40;;
40867;SDS011;26586;50.708;22.412;2023-08-07T06:16:56;0.77;;;0.70;;
40867;SDS011;26586;50.708;22.412;2023-08-07T06:19:26;0.57;;;0.57;;
40867;SDS011;26586;50.708;22.412;2023-08-07T06:21:52;3.50;;;1.00;;
40867;SDS011;26586;50.708;22.412;2023-08-07T06:24:19;3.47;;;1.55;;
40867;SDS011;26586;50.708;22.412;2023-08-07T06:26:45;0.70;;;0.45;;
40867;SDS011;26586;50.708;22.412;2023-08-07T06:29:12;2.08;;;1.05;;
40867;SDS011;26586;50.708;22.412;2023-08-07T06:31:41;1.50;;;0.35;;
40867;SDS011;26586;50.708;22.412;2023-08-07T06:34:08;0.90;;;0.70;;
40867;SDS011;26586;50.708;22.412;2023-08-07T06:36:34;1.05;;;0.38;;
40867;SDS011;26586;50.708;22.412;2023-08-07T06:39:01;0.30;;;0.20;;
40867;SDS011;26586;50.708;22.412;2023-08-07T06:41:29;1.35;;;0.63;;
40867;SDS011;26586;50.708;22.412;2023-08-07T06:46:22;3.97;;;1.63;;
40867;SDS011;26586;50.708;22.412;2023-08-07T06:48:52;2.90;;;1.95;;
40867;SDS011;26586;50.708;22.412;2023-08-07T06:53:45;8.65;;;2.35;;
40867;SDS011;26586;50.708;22.412;2023-08-07T06:56:11;2.72;;;2.20;;
40867;SDS011;26586;50.708;22.412;2023-08-07T06:58:38;2.10;;;1.15;;
40867;SDS011;26586;50.708;22.412;2023-08-07T07:01:09;3.22;;;1.92;;
40867;SDS011;26586;50.708;22.412;2023-08-07T07:03:36;6.43;;;1.67;;
40867;SDS011;26586;50.708;22.412;2023-08-07T07:06:04;3.20;;;1.98;;
40867;SDS011;26586;50.708;22.412;2023-08-07T07:08:31;4.78;;;1.30;;
40867;SDS011;26586;50.708;22.412;2023-08-07T07:11:00;2.85;;;1.25;;
40867;SDS011;26586;50.708;22.412;2023-08-07T07:13:26;2.53;;;2.33;;
40867;SDS011;26586;50.708;22.412;2023-08-07T07:20:46;3.63;;;2.67;;
40867;SDS011;26586;50.708;22.412;2023-08-07T07:23:16;3.03;;;2.35;;
40867;SDS011;26586;50.708;22.412;2023-08-07T07:25:42;8.20;;;4.57;;
40867;SDS011;26586;50.708;22.412;2023-08-07T07:28:08;4.20;;;2.38;;
40867;SDS011;26586;50.708;22.412;2023-08-07T07:30:34;3.23;;;1.77;;
40867;SDS011;26586;50.708;22.412;2023-08-07T07:33:01;7.28;;;2.13;;
40867;SDS011;26586;50.708;22.412;2023-08-07T07:35:27;1.90;;;0.93;;
40867;SDS011;26586;50.708;22.412;2023-08-07T07:37:53;1.65;;;1.55;;
40867;SDS011;26586;50.708;22.412;2023-08-07T07:40:19;1.50;;;0.97;;
40867;SDS011;26586;50.708;22.412;2023-08-07T07:42:46;1.15;;;0.95;;
40867;SDS011;26586;50.708;22.412;2023-08-07T07:45:12;0.20;;;0.20;;
40867;SDS011;26586;50.708;22.412;2023-08-07T07:47:38;0.55;;;0.55;;
40867;SDS011;26586;50.708;22.412;2023-08-07T07:50:05;1.83;;;1.23;;
40867;SDS011;26586;50.708;22.412;2023-08-07T07:52:34;2.38;;;1.17;;
40867;SDS011;26586;50.708;22.412;2023-08-07T07:55:00;3.10;;;0.95;;
40867;SDS011;26586;50.708;22.412;2023-08-07T07:57:28;1.48;;;1.13;;
40867;SDS011;26586;50.708;22.412;2023-08-07T07:59:56;1.38;;;1.05;;
40867;SDS011;26586;50.708;22.412;2023-08-07T08:02:23;0.20;;;0.20;;
40867;SDS011;26586;50.708;22.412;2023-08-07T08:04:50;2.90;;;1.10;;
40867;SDS011;26586;50.708;22.412;2023-08-07T08:07:18;0.80;;;0.55;;
40867;SDS011;26586;50.708;22.412;2023-08-07T08:09:50;1.00;;;0.60;;
40867;SDS011;26586;50.708;22.412;2023-08-07T08:12:16;1.05;;;0.75;;
40867;SDS011;26586;50.708;22.412;2023-08-07T08:14:42;0.40;;;0.37;;
40867;SDS011;26586;50.708;22.412;2023-08-07T08:17:09;0.20;;;0.20;;
40867;SDS011;26586;50.708;22.412;2023-08-07T08:19:35;0.90;;;0.35;;
40867;SDS011;26586;50.708;22.412;2023-08-07T08:22:02;0.43;;;0.28;;
40867;SDS011;26586;50.708;22.412;2023-08-07T08:24:28;0.68;;;0.63;;
40867;SDS011;26586;50.708;22.412;2023-08-07T08:26:57;0.10;;;0.10;;
40867;SDS011;26586;50.708;22.412;2023-08-07T08:29:23;0.63;;;0.20;;
40867;SDS011;26586;50.708;22.412;2023-08-07T08:31:50;0.10;;;0.10;;
40867;SDS011;26586;50.708;22.412;2023-08-07T08:34:18;0.05;;;0.05;;
40867;SDS011;26586;50.708;22.412;2023-08-07T08:36:44;0.47;;;0.45;;
40867;SDS011;26586;50.708;22.412;2023-08-07T08:39:10;1.40;;;0.43;;
40867;SDS011;26586;50.708;22.412;2023-08-07T08:41:37;0.90;;;0.68;;
40867;SDS011;26586;50.708;22.412;2023-08-07T08:44:03;0.00;;;0.00;;
40867;SDS011;26586;50.708;22.412;2023-08-07T08:46:32;1.45;;;0.50;;
40867;SDS011;26586;50.708;22.412;2023-08-07T08:49:00;0.52;;;0.35;;
40867;SDS011;26586;50.708;22.412;2023-08-07T08:51:29;6.47;;;0.73;;
40867;SDS011;26586;50.708;22.412;2023-08-07T08:53:56;0.50;;;0.32;;
40867;SDS011;26586;50.708;22.412;2023-08-07T08:56:23;0.73;;;0.70;;
40867;SDS011;26586;50.708;22.412;2023-08-07T08:58:50;0.22;;;0.10;;
40867;SDS011;26586;50.708;22.412;2023-08-07T09:01:18;0.63;;;0.30;;
40867;SDS011;26586;50.708;22.412;2023-08-07T09:03:44;4.75;;;0.55;;
40867;SDS011;26586;50.708;22.412;2023-08-07T09:06:14;0.28;;;0.22;;
40867;SDS011;26586;50.708;22.412;2023-08-07T09:08:42;2.22;;;0.30;;
40867;SDS011;26586;50.708;22.412;2023-08-07T09:11:10;0.47;;;0.30;;
40867;SDS011;26586;50.708;22.412;2023-08-07T09:13:37;0.40;;;0.20;;
40867;SDS011;26586;50.708;22.412;2023-08-07T09:16:04;0.10;;;0.10;;
40867;SDS011;26586;50.708;22.412;2023-08-07T09:18:34;0.45;;;0.30;;
40867;SDS011;26586;50.708;22.412;2023-08-07T09:26:01;0.10;;;0.10;;
40867;SDS011;26586;50.708;22.412;2023-08-07T09:28:29;2.83;;;0.40;;
40867;SDS011;26586;50.708;22.412;2023-08-07T09:33:25;0.57;;;0.32;;
40867;SDS011;26586;50.708;22.412;2023-08-07T09:35:53;0.75;;;0.40;;
40867;SDS011;26586;50.708;22.412;2023-08-07T09:38:29;1.00;;;0.28;;
40867;SDS011;26586;50.708;22.412;2023-08-07T09:40:58;0.10;;;0.10;;
40867;SDS011;26586;50.708;22.412;2023-08-07T09:43:29;0.13;;;0.00;;
40867;SDS011;26586;50.708;22.412;2023-08-07T09:46:08;0.00;;;0.00;;
40867;SDS011;26586;50.708;22.412;2023-08-07T09:48:39;0.00;;;0.00;;
40867;SDS011;26586;50.708;22.412;2023-08-07T09:51:07;0.00;;;0.00;;
40867;SDS011;26586;50.708;22.412;2023-08-07T09:53:34;0.17;;;0.10;;
40867;SDS011;26586;50.708;22.412;2023-08-07T09:56:02;0.00;;;0.00;;
40867;SDS011;26586;50.708;22.412;2023-08-07T09:58:29;1.50;;;0.20;;
40867;SDS011;26586;50.708;22.412;2023-08-07T10:00:58;0.00;;;0.00;;
40867;SDS011;26586;50.708;22.412;2023-08-07T10:03:26;0.10;;;0.10;;
40867;SDS011;26586;50.708;22.412;2023-08-07T10:05:53;0.00;;;0.00;;
40867;SDS011;26586;50.708;22.412;2023-08-07T10:08:19;0.00;;;0.00;;
40867;SDS011;26586;50.708;22.412;2023-08-07T10:10:47;0.00;;;0.00;;
40867;SDS011;26586;50.708;22.412;2023-08-07T10:13:14;0.00;;;0.00;;
40867;SDS011;26586;50.708;22.412;2023-08-07T10:15:42;0.00;;;0.00;;
40867;SDS011;26586;50.708;22.412;2023-08-07T10:20:35;0.00;;;0.00;;
40867;SDS011;26586;50.708;22.412;2023-08-07T10:25:37;0.10;;;0.10;;
40867;SDS011;26586;50.708;22.412;2023-08-07T10:28:06;0.00;;;0.00;;
40867;SDS011;26586;50.708;22.412;2023-08-07T10:30:36;0.00;;;0.00;;
40867;SDS011;26586;50.708;22.412;2023-08-07T10:33:03;0.10;;;0.10;;
40867;SDS011;26586;50.708;22.412;2023-08-07T10:35:32;0.10;;;0.10;;
40867;SDS011;26586;50.708;22.412;2023-08-07T10:38:05;0.00;;;0.00;;
40867;SDS011;26586;50.708;22.412;2023-08-07T10:41:10;0.00;;;0.00;;
40867;SDS011;26586;50.708;22.412;2023-08-07T10:43:38;0.00;;;0.00;;
40867;SDS011;26586;50.708;22.412;2023-08-07T10:46:06;0.63;;;0.50;;
40867;SDS011;26586;50.708;22.412;2023-08-07T10:48:46;0.13;;;0.08;;
40867;SDS011;26586;50.708;22.412;2023-08-07T10:51:14;0.00;;;0.00;;
40867;SDS011;26586;50.708;22.412;2023-08-07T10:53:43;0.00;;;0.00;;
40867;SDS011;26586;50.708;22.412;2023-08-07T10:56:18;0.03;;;0.03;;
40867;SDS011;26586;50.708;22.412;2023-08-07T10:58:56;0.00;;;0.00;;
40867;SDS011;26586;50.708;22.412;2023-08-07T11:04:08;0.00;;;0.00;;
40867;SDS011;26586;50.708;22.412;2023-08-07T11:06:38;0.00;;;0.00;;
40867;SDS011;26586;50.708;22.412;2023-08-07T11:09:06;0.00;;;0.00;;
40867;SDS011;26586;50.708;22.412;2023-08-07T11:11:41;0.00;;;0.00;;
40867;SDS011;26586;50.708;22.412;2023-08-07T11:14:09;0.43;;;0.20;;
40867;SDS011;26586;50.708;22.412;2023-08-07T11:16:37;0.00;;;0.00;;
40867;SDS011;26586;50.708;22.412;2023-08-07T11:19:03;0.00;;;0.00;;
40867;SDS011;26586;50.708;22.412;2023-08-07T11:21:31;0.00;;;0.00;;
40867;SDS011;26586;50.708;22.412;2023-08-07T11:23:58;0.88;;;0.43;;
40867;SDS011;26586;50.708;22.412;2023-08-07T11:26:25;0.00;;;0.00;;
40867;SDS011;26586;50.708;22.412;2023-08-07T11:28:54;0.00;;;0.00;;
40867;SDS011;26586;50.708;22.412;2023-08-07T11:31:21;0.00;;;0.00;;
40867;SDS011;26586;50.708;22.412;2023-08-07T11:33:50;0.00;;;0.00;;
40867;SDS011;26586;50.708;22.412;2023-08-07T11:36:17;0.10;;;0.10;;
40867;SDS011;26586;50.708;22.412;2023-08-07T11:38:44;0.10;;;0.05;;
40867;SDS011;26586;50.708;22.412;2023-08-07T11:41:14;0.00;;;0.00;;
40867;SDS011;26586;50.708;22.412;2023-08-07T11:43:42;0.00;;;0.00;;
40867;SDS011;26586;50.708;22.412;2023-08-07T11:46:10;0.00;;;0.00;;
40867;SDS011;26586;50.708;22.412;2023-08-07T11:48:38;0.10;;;0.10;;
40867;SDS011;26586;50.708;22.412;2023-08-07T11:51:05;0.32;;;0.32;;
40867;SDS011;26586;50.708;22.412;2023-08-07T11:56:05;0.08;;;0.08;;
40867;SDS011;26586;50.708;22.412;2023-08-07T11:58:35;0.00;;;0.00;;
40867;SDS011;26586;50.708;22.412;2023-08-07T12:01:04;0.00;;;0.00;;
40867;SDS011;26586;50.708;22.412;2023-08-07T12:03:57;0.17;;;0.17;;
40867;SDS011;26586;50.708;22.412;2023-08-07T12:06:35;0.75;;;0.38;;
40867;SDS011;26586;50.708;22.412;2023-08-07T12:09:04;0.80;;;0.00;;
40867;SDS011;26586;50.708;22.412;2023-08-07T12:11:35;0.50;;;0.35;;
40867;SDS011;26586;50.708;22.412;2023-08-07T12:14:01;0.32;;;0.05;;
40867;SDS011;26586;50.708;22.412;2023-08-07T12:16:31;0.20;;;0.20;;
40867;SDS011;26586;50.708;22.412;2023-08-07T12:18:58;0.00;;;0.00;;
40867;SDS011;26586;50.708;22.412;2023-08-07T12:21:25;0.10;;;0.10;;
40867;SDS011;26586;50.708;22.412;2023-08-07T12:23:55;0.05;;;0.00;;
40867;SDS011;26586;50.708;22.412;2023-08-07T12:26:24;0.10;;;0.10;;
40867;SDS011;26586;50.708;22.412;2023-08-07T12:28:52;0.10;;;0.05;;
40867;SDS011;26586;50.708;22.412;2023-08-07T12:31:19;0.10;;;0.10;;
40867;SDS011;26586;50.708;22.412;2023-08-07T12:33:45;0.00;;;0.00;;
40867;SDS011;26586;50.708;22.412;2023-08-07T12:36:12;0.00;;;0.00;;
40867;SDS011;26586;50.708;22.412;2023-08-07T12:38:40;0.00;;;0.00;;
40867;SDS011;26586;50.708;22.412;2023-08-07T12:43:33;0.00;;;0.00;;
40867;SDS011;26586;50.708;22.412;2023-08-07T12:46:00;0.85;;;0.38;;
40867;SDS011;26586;50.708;22.412;2023-08-07T12:48:27;0.00;;;0.00;;
40867;SDS011;26586;50.708;22.412;2023-08-07T12:50:54;0.28;;;0.28;;
40867;SDS011;26586;50.708;22.412;2023-08-07T12:53:20;0.40;;;0.15;;
40867;SDS011;26586;50.708;22.412;2023-08-07T12:55:47;0.32;;;0.20;;
40867;SDS011;26586;50.708;22.412;2023-08-07T12:58:13;0.03;;;0.03;;
40867;SDS011;26586;50.708;22.412;2023-08-07T13:00:41;0.28;;;0.15;;
40867;SDS011;26586;50.708;22.412;2023-08-07T13:03:07;0.65;;;0.00;;
40867;SDS011;26586;50.708;22.412;2023-08-07T13:05:33;0.00;;;0.00;;
40867;SDS011;26586;50.708;22.412;2023-08-07T13:07:59;0.00;;;0.00;;
40867;SDS011;26586;50.708;22.412;2023-08-07T13:10:26;0.00;;;0.00;;
40867;SDS011;26586;50.708;22.412;2023-08-07T13:12:56;0.05;;;0.05;;
40867;SDS011;26586;50.708;22.412;2023-08-07T13:15:23;0.10;;;0.10;;
40867;SDS011;26586;50.708;22.412;2023-08-07T13:17:50;0.57;;;0.05;;
40867;SDS011;26586;50.708;22.412;2023-08-07T13:20:16;0.22;;;0.22;;
40867;SDS011;26586;50.708;22.412;2023-08-07T13:22:43;0.00;;;0.00;;
40867;SDS011;26586;50.708;22.412;2023-08-07T13:25:11;0.00;;;0.00;;
40867;SDS011;26586;50.708;22.412;2023-08-07T13:27:38;0.28;;;0.10;;
40867;SDS011;26586;50.708;22.412;2023-08-07T13:30:05;0.00;;;0.00;;
40867;SDS011;26586;50.708;22.412;2023-08-07T13:32:32;0.10;;;0.00;;
40867;SDS011;26586;50.708;22.412;2023-08-07T13:34:59;0.25;;;0.15;;
40867;SDS011;26586;50.708;22.412;2023-08-07T13:37:27;0.05;;;0.05;;
40867;SDS011;26586;50.708;22.412;2023-08-07T13:39:55;0.00;;;0.00;;
40867;SDS011;26586;50.708;22.412;2023-08-07T13:42:23;0.00;;;0.00;;
40867;SDS011;26586;50.708;22.412;2023-08-07T13:44:51;0.00;;;0.00;;
40867;SDS011;26586;50.708;22.412;2023-08-07T13:49:46;0.00;;;0.00;;
40867;SDS011;26586;50.708;22.412;2023-08-07T13:52:15;0.00;;;0.00;;
40867;SDS011;26586;50.708;22.412;2023-08-07T13:54:42;0.17;;;0.15;;
40867;SDS011;26586;50.708;22.412;2023-08-07T13:57:08;0.00;;;0.00;;
40867;SDS011;26586;50.708;22.412;2023-08-07T13:59:34;0.00;;;0.00;;
40867;SDS011;26586;50.708;22.412;2023-08-07T14:02:01;0.00;;;0.00;;
40867;SDS011;26586;50.708;22.412;2023-08-07T14:04:27;0.00;;;0.00;;
40867;SDS011;26586;50.708;22.412;2023-08-07T14:06:54;0.00;;;0.00;;
40867;SDS011;26586;50.708;22.412;2023-08-07T14:09:26;0.00;;;0.00;;
40867;SDS011;26586;50.708;22.412;2023-08-07T14:11:52;0.85;;;0.13;;
40867;SDS011;26586;50.708;22.412;2023-08-07T14:14:21;0.00;;;0.00;;
40867;SDS011;26586;50.708;22.412;2023-08-07T14:16:48;0.08;;;0.08;;
40867;SDS011;26586;50.708;22.412;2023-08-07T14:19:14;0.00;;;0.00;;
40867;SDS011;26586;50.708;22.412;2023-08-07T14:21:41;0.13;;;0.13;;
40867;SDS011;26586;50.708;22.412;2023-08-07T14:24:09;0.00;;;0.00;;
40867;SDS011;26586;50.708;22.412;2023-08-07T14:26:35;0.00;;;0.00;;
40867;SDS011;26586;50.708;22.412;2023-08-07T14:29:04;0.00;;;0.00;;
40867;SDS011;26586;50.708;22.412;2023-08-07T14:31:31;0.10;;;0.10;;
40867;SDS011;26586;50.708;22.412;2023-08-07T14:33:57;0.00;;;0.00;;
40867;SDS011;26586;50.708;22.412;2023-08-07T14:36:24;0.00;;;0.00;;
40867;SDS011;26586;50.708;22.412;2023-08-07T14:38:50;0.00;;;0.00;;
40867;SDS011;26586;50.708;22.412;2023-08-07T14:41:17;0.00;;;0.00;;
40867;SDS011;26586;50.708;22.412;2023-08-07T14:43:49;0.00;;;0.00;;
40867;SDS011;26586;50.708;22.412;2023-08-07T14:46:16;0.00;;;0.00;;
40867;SDS011;26586;50.708;22.412;2023-08-07T14:48:44;0.10;;;0.00;;
40867;SDS011;26586;50.708;22.412;2023-08-07T14:51:10;0.15;;;0.15;;
40867;SDS011;26586;50.708;22.412;2023-08-07T14:53:36;0.00;;;0.00;;
40867;SDS011;26586;50.708;22.412;2023-08-07T14:56:03;0.10;;;0.10;;
40867;SDS011;26586;50.708;22.412;2023-08-07T14:58:29;0.00;;;0.00;;
40867;SDS011;26586;50.708;22.412;2023-08-07T15:00:58;0.00;;;0.00;;
40867;SDS011;26586;50.708;22.412;2023-08-07T15:03:27;0.13;;;0.10;;
40867;SDS011;26586;50.708;22.412;2023-08-07T15:05:53;0.00;;;0.00;;
40867;SDS011;26586;50.708;22.412;2023-08-07T15:08:20;0.00;;;0.00;;
40867;SDS011;26586;50.708;22.412;2023-08-07T15:10:46;0.10;;;0.10;;
40867;SDS011;26586;50.708;22.412;2023-08-07T15:13:12;0.00;;;0.00;;
40867;SDS011;26586;50.708;22.412;2023-08-07T15:15:45;0.00;;;0.00;;
40867;SDS011;26586;50.708;22.412;2023-08-07T15:18:11;0.00;;;0.00;;
40867;SDS011;26586;50.708;22.412;2023-08-07T15:20:37;1.88;;;0.80;;